sensor_id;sensor_type;location;lat;lon;timestamp;pressure;altitude;pressure_sealevel;temperature;humidity
8280;BME280;8335;42.646;23.380;2023-04-01T00:00:23;144405.94;;;11.43;69.96
8280;BME280;8335;42.646;23.380;2023-04-01T00:02:50;144313.94;;;11.05;70.93
8280;BME280;8335;42.646;23.380;2023-04-01T00:05:17;144246.78;;;10.78;71.98
8280;BME280;8335;42.646;23.380;2023-04-01T00:07:43;144223.16;;;10.68;72.51
8280;BME280;8335;42.646;23.380;2023-04-01T00:10:11;144224.41;;;10.68;72.85
8280;BME280;8335;42.646;23.380;2023-04-01T00:12:40;144236.84;;;10.73;72.85
8280;BME280;8335;42.646;23.380;2023-04-01T00:15:08;144197.03;;;10.57;72.92
8280;BME280;8335;42.646;23.380;2023-04-01T00:17:35;144228.13;;;10.70;73.20
8280;BME280;8335;42.646;23.380;2023-04-01T00:20:03;144178.41;;;10.50;73.82
8280;BME280;8335;42.646;23.380;2023-04-01T00:22:30;144164.75;;;10.44;74.49
8280;BME280;8335;42.646;23.380;2023-04-01T00:24:57;144180.91;;;10.51;74.38
8280;BME280;8335;42.646;23.380;2023-04-01T00:27:24;144172.19;;;10.47;74.34
8280;BME280;8335;42.646;23.380;2023-04-01T00:29:52;144164.75;;;10.44;74.63
8280;BME280;8335;42.646;23.380;2023-04-01T00:32:19;144156.03;;;10.40;74.84
8280;BME280;8335;42.646;23.380;2023-04-01T00:34:49;144154.78;;;10.40;74.95
8280;BME280;8335;42.646;23.380;2023-04-01T00:37:16;144161.00;;;10.42;75.26
8280;BME280;8335;42.646;23.380;2023-04-01T00:39:43;144177.16;;;10.49;74.82
8280;BME280;8335;42.646;23.380;2023-04-01T00:42:11;144182.16;;;10.51;75.03
8280;BME280;8335;42.646;23.380;2023-04-01T00:44:39;144184.66;;;10.52;74.64
8280;BME280;8335;42.646;23.380;2023-04-01T00:47:08;144190.84;;;10.55;74.50
8280;BME280;8335;42.646;23.380;2023-04-01T00:49:37;144189.59;;;10.54;74.65
8280;BME280;8335;42.646;23.380;2023-04-01T00:52:07;144183.41;;;10.52;74.85
8280;BME280;8335;42.646;23.380;2023-04-01T00:54:35;144200.81;;;10.59;74.97
8280;BME280;8335;42.646;23.380;2023-04-01T00:57:06;144083.91;;;10.11;75.02
8280;BME280;8335;42.646;23.380;2023-04-01T00:59:37;144197.03;;;10.57;73.62
8280;BME280;8335;42.646;23.380;2023-04-01T01:02:10;144210.72;;;10.63;72.76
8280;BME280;8335;42.646;23.380;2023-04-01T01:04:38;144213.19;;;10.64;72.71
8280;BME280;8335;42.646;23.380;2023-04-01T01:07:13;144215.72;;;10.65;72.88
8280;BME280;8335;42.646;23.380;2023-04-01T01:09:52;144200.81;;;10.59;73.62
8280;BME280;8335;42.646;23.380;2023-04-01T01:12:28;144198.31;;;10.58;72.85
8280;BME280;8335;42.646;23.380;2023-04-01T01:15:03;144198.31;;;10.58;72.40
8280;BME280;8335;42.646;23.380;2023-04-01T01:17:48;144202.03;;;10.59;72.32
8280;BME280;8335;42.646;23.380;2023-04-01T01:26:51;144207.00;;;10.61;71.45
8280;BME280;8335;42.646;23.380;2023-04-01T01:29:37;144204.53;;;10.60;70.78
8280;BME280;8335;42.646;23.380;2023-04-01T01:32:16;144218.22;;;10.66;69.94
8280;BME280;8335;42.646;23.380;2023-04-01T01:34:50;144230.59;;;10.71;69.79
8280;BME280;8335;42.646;23.380;2023-04-01T01:37:24;144235.63;;;10.73;69.18
8280;BME280;8335;42.646;23.380;2023-04-01T01:39:55;144269.19;;;10.87;67.26
8280;BME280;8335;42.646;23.380;2023-04-01T01:42:24;144275.38;;;10.89;66.75
8280;BME280;8335;42.646;23.380;2023-04-01T01:44:53;144294.03;;;10.97;66.28
8280;BME280;8335;42.646;23.380;2023-04-01T01:47:22;144300.22;;;10.99;66.80
8280;BME280;8335;42.646;23.380;2023-04-01T01:49:51;144264.19;;;10.85;66.30
8280;BME280;8335;42.646;23.380;2023-04-01T01:52:18;144323.91;;;11.09;66.22
8280;BME280;8335;42.646;23.380;2023-04-01T01:54:50;144326.38;;;11.10;65.63
8280;BME280;8335;42.646;23.380;2023-04-01T01:57:21;144345.03;;;11.18;65.63
8280;BME280;8335;42.646;23.380;2023-04-01T01:59:52;144357.47;;;11.23;64.48
8280;BME280;8335;42.646;23.380;2023-04-01T02:02:21;144359.97;;;11.24;65.19
8280;BME280;8335;42.646;23.380;2023-04-01T02:04:49;144362.44;;;11.25;64.57
8280;BME280;8335;42.646;23.380;2023-04-01T02:07:20;144384.81;;;11.34;64.22
8280;BME280;8335;42.646;23.380;2023-04-01T02:09:49;144387.28;;;11.35;64.41
8280;BME280;8335;42.646;23.380;2023-04-01T02:12:18;144374.88;;;11.30;64.22
8280;BME280;8335;42.646;23.380;2023-04-01T02:14:51;144372.41;;;11.29;64.87
8280;BME280;8335;42.646;23.380;2023-04-01T02:17:20;144366.16;;;11.26;64.74
8280;BME280;8335;42.646;23.380;2023-04-01T02:19:50;144376.13;;;11.30;64.31
8280;BME280;8335;42.646;23.380;2023-04-01T02:22:20;144371.13;;;11.28;64.34
8280;BME280;8335;42.646;23.380;2023-04-01T02:24:50;144392.31;;;11.37;64.23
8280;BME280;8335;42.646;23.380;2023-04-01T02:27:19;144392.31;;;11.37;64.31
8280;BME280;8335;42.646;23.380;2023-04-01T02:29:46;144386.06;;;11.35;64.39
8280;BME280;8335;42.646;23.380;2023-04-01T02:32:14;144378.63;;;11.32;64.27
8280;BME280;8335;42.646;23.380;2023-04-01T02:34:43;144408.47;;;11.44;63.89
8280;BME280;8335;42.646;23.380;2023-04-01T02:37:10;144435.81;;;11.55;63.58
8280;BME280;8335;42.646;23.380;2023-04-01T02:39:38;144438.31;;;11.56;63.13
8280;BME280;8335;42.646;23.380;2023-04-01T02:42:06;144443.31;;;11.58;63.32
8280;BME280;8335;42.646;23.380;2023-04-01T02:44:33;144439.53;;;11.56;64.02
8280;BME280;8335;42.646;23.380;2023-04-01T02:47:00;144450.75;;;11.61;63.94
8280;BME280;8335;42.646;23.380;2023-04-01T02:49:27;144459.50;;;11.65;63.71
8280;BME280;8335;42.646;23.380;2023-04-01T02:51:53;144463.22;;;11.66;63.07
8280;BME280;8335;42.646;23.380;2023-04-01T02:54:20;144461.97;;;11.66;64.14
8280;BME280;8335;42.646;23.380;2023-04-01T02:56:47;144464.44;;;11.67;64.28
8280;BME280;8335;42.646;23.380;2023-04-01T02:59:15;144474.38;;;11.71;64.02
8280;BME280;8335;42.646;23.380;2023-04-01T03:01:42;144461.97;;;11.66;64.67
8280;BME280;8335;42.646;23.380;2023-04-01T03:04:08;144458.19;;;11.64;64.42
8280;BME280;8335;42.646;23.380;2023-04-01T03:06:35;144448.28;;;11.60;64.58
8280;BME280;8335;42.646;23.380;2023-04-01T03:09:02;144454.47;;;11.63;64.56
8280;BME280;8335;42.646;23.380;2023-04-01T03:11:29;144469.41;;;11.69;64.41
8280;BME280;8335;42.646;23.380;2023-04-01T03:13:55;144468.19;;;11.68;65.03
8280;BME280;8335;42.646;23.380;2023-04-01T03:16:24;144435.81;;;11.55;65.96
8280;BME280;8335;42.646;23.380;2023-04-01T03:18:50;144463.22;;;11.66;66.63
8280;BME280;8335;42.646;23.380;2023-04-01T03:21:19;144440.78;;;11.57;66.67
8280;BME280;8335;42.646;23.380;2023-04-01T03:23:46;144445.78;;;11.59;66.86
8280;BME280;8335;42.646;23.380;2023-04-01T03:26:13;144428.38;;;11.52;67.34
8280;BME280;8335;42.646;23.380;2023-04-01T03:28:40;144412.19;;;11.45;68.13
8280;BME280;8335;42.646;23.380;2023-04-01T03:31:07;144408.47;;;11.44;68.27
8280;BME280;8335;42.646;23.380;2023-04-01T03:33:35;144397.28;;;11.39;68.60
8280;BME280;8335;42.646;23.380;2023-04-01T03:36:03;144371.13;;;11.28;69.28
8280;BME280;8335;42.646;23.380;2023-04-01T03:38:31;144355.00;;;11.22;69.50
8280;BME280;8335;42.646;23.380;2023-04-01T03:40:58;144299.00;;;10.99;69.06
8280;BME280;8335;42.646;23.380;2023-04-01T03:43:25;144322.66;;;11.09;70.08
8280;BME280;8335;42.646;23.380;2023-04-01T03:45:52;144331.34;;;11.12;70.45
8280;BME280;8335;42.646;23.380;2023-04-01T03:48:21;144325.13;;;11.10;70.99
8280;BME280;8335;42.646;23.380;2023-04-01T03:50:50;144350.00;;;11.20;70.83
8280;BME280;8335;42.646;23.380;2023-04-01T03:53:16;144367.41;;;11.27;70.84
8280;BME280;8335;42.646;23.380;2023-04-01T03:55:43;144373.66;;;11.29;71.10
8280;BME280;8335;42.646;23.380;2023-04-01T03:58:11;144366.16;;;11.26;70.35
8280;BME280;8335;42.646;23.380;2023-04-01T04:00:38;144348.75;;;11.19;70.78
8280;BME280;8335;42.646;23.380;2023-04-01T04:03:06;144277.88;;;10.90;73.33
8280;BME280;8335;42.646;23.380;2023-04-01T04:05:32;144236.84;;;10.73;74.13
8280;BME280;8335;42.646;23.380;2023-04-01T04:08:01;144207.00;;;10.61;73.56
8280;BME280;8335;42.646;23.380;2023-04-01T04:10:28;144158.50;;;10.41;74.18
8280;BME280;8335;42.646;23.380;2023-04-01T04:12:55;144159.75;;;10.42;73.67
8280;BME280;8335;42.646;23.380;2023-04-01T04:15:22;144192.06;;;10.55;73.89
8280;BME280;8335;42.646;23.380;2023-04-01T04:17:49;144187.13;;;10.53;72.13
8280;BME280;8335;42.646;23.380;2023-04-01T04:20:16;144203.28;;;10.60;72.56
8280;BME280;8335;42.646;23.380;2023-04-01T04:22:42;144200.81;;;10.59;72.61
8280;BME280;8335;42.646;23.380;2023-04-01T04:25:11;144203.28;;;10.60;71.68
8280;BME280;8335;42.646;23.380;2023-04-01T04:27:37;144216.97;;;10.65;71.53
8280;BME280;8335;42.646;23.380;2023-04-01T04:30:06;144202.03;;;10.59;71.39
8280;BME280;8335;42.646;23.380;2023-04-01T04:32:33;144225.66;;;10.69;71.10
8280;BME280;8335;42.646;23.380;2023-04-01T04:35:00;144229.38;;;10.70;70.51
8280;BME280;8335;42.646;23.380;2023-04-01T04:37:26;144216.97;;;10.65;70.79
8280;BME280;8335;42.646;23.380;2023-04-01T04:39:53;144229.38;;;10.70;71.02
8280;BME280;8335;42.646;23.380;2023-04-01T04:42:21;144226.88;;;10.69;69.34
8280;BME280;8335;42.646;23.380;2023-04-01T04:44:48;144256.75;;;10.82;68.89
8280;BME280;8335;42.646;23.380;2023-04-01T04:47:15;144267.94;;;10.86;68.48
8280;BME280;8335;42.646;23.380;2023-04-01T04:49:42;144266.66;;;10.86;68.12
8280;BME280;8335;42.646;23.380;2023-04-01T04:52:08;144277.88;;;10.90;67.56
8280;BME280;8335;42.646;23.380;2023-04-01T04:54:35;144289.06;;;10.95;67.02
8280;BME280;8335;42.646;23.380;2023-04-01T04:57:02;144284.06;;;10.93;66.96
8280;BME280;8335;42.646;23.380;2023-04-01T04:59:30;144277.88;;;10.90;67.97
8280;BME280;8335;42.646;23.380;2023-04-01T05:01:57;144276.63;;;10.90;66.99
8280;BME280;8335;42.646;23.380;2023-04-01T05:04:24;144286.59;;;10.94;67.24
8280;BME280;8335;42.646;23.380;2023-04-01T05:06:50;144291.56;;;10.96;66.74
8280;BME280;8335;42.646;23.380;2023-04-01T05:09:18;144300.22;;;10.99;66.60
8280;BME280;8335;42.646;23.380;2023-04-01T05:11:44;144330.09;;;11.12;66.74
8280;BME280;8335;42.646;23.380;2023-04-01T05:14:13;144321.41;;;11.08;66.86
8280;BME280;8335;42.646;23.380;2023-04-01T05:16:41;144382.34;;;11.33;67.43
8280;BME280;8335;42.646;23.380;2023-04-01T05:19:08;144398.50;;;11.40;67.85
8280;BME280;8335;42.646;23.380;2023-04-01T05:21:35;144408.47;;;11.44;67.83
8280;BME280;8335;42.646;23.380;2023-04-01T05:24:02;144407.25;;;11.43;67.09
8280;BME280;8335;42.646;23.380;2023-04-01T05:26:28;144392.31;;;11.37;67.27
8280;BME280;8335;42.646;23.380;2023-04-01T05:28:55;144362.44;;;11.25;67.89
8280;BME280;8335;42.646;23.380;2023-04-01T05:31:22;144388.53;;;11.36;67.61
8280;BME280;8335;42.646;23.380;2023-04-01T05:33:52;144407.25;;;11.43;67.28
8280;BME280;8335;42.646;23.380;2023-04-01T05:36:19;144428.38;;;11.52;67.64
8280;BME280;8335;42.646;23.380;2023-04-01T05:38:46;144449.53;;;11.61;67.83
8280;BME280;8335;42.646;23.380;2023-04-01T05:41:13;144474.38;;;11.71;67.41
8280;BME280;8335;42.646;23.380;2023-04-01T05:43:41;144493.03;;;11.78;67.56
8280;BME280;8335;42.646;23.380;2023-04-01T05:46:08;144504.31;;;11.83;67.71
8280;BME280;8335;42.646;23.380;2023-04-01T05:48:35;144527.94;;;11.93;67.01
8280;BME280;8335;42.646;23.380;2023-04-01T05:51:04;144554.09;;;12.03;66.73
8280;BME280;8335;42.646;23.380;2023-04-01T05:53:31;144578.97;;;12.13;66.52
8280;BME280;8335;42.646;23.380;2023-04-01T05:56:02;144617.59;;;12.29;65.45
8280;BME280;8335;42.646;23.380;2023-04-01T05:58:29;144643.72;;;12.40;64.78
8280;BME280;8335;42.646;23.380;2023-04-01T06:01:00;144696.00;;;12.61;64.07
8280;BME280;8335;42.646;23.380;2023-04-01T06:03:27;144892.81;;;13.42;60.70
8280;BME280;8335;42.646;23.380;2023-04-01T06:05:54;145218.25;;;14.75;55.50
8280;BME280;8335;42.646;23.380;2023-04-01T06:08:24;145567.72;;;16.17;51.00
8280;BME280;8335;42.646;23.380;2023-04-01T06:10:58;145863.81;;;17.38;46.65
8280;BME280;8335;42.646;23.380;2023-04-01T06:13:39;145936.31;;;17.68;44.79
8280;BME280;8335;42.646;23.380;2023-04-01T06:16:15;145883.81;;;17.46;45.74
8280;BME280;8335;42.646;23.380;2023-04-01T06:18:59;145836.31;;;17.27;46.27
8280;BME280;8335;42.646;23.380;2023-04-01T06:21:54;145797.56;;;17.11;47.52
8280;BME280;8335;42.646;23.380;2023-04-01T06:24:39;145772.63;;;17.01;47.09
8280;BME280;8335;42.646;23.380;2023-04-01T06:27:16;145713.88;;;16.77;47.47
8280;BME280;8335;42.646;23.380;2023-04-01T06:29:53;145703.91;;;16.73;47.65
8280;BME280;8335;42.646;23.380;2023-04-01T06:32:45;145687.59;;;16.66;47.68
8280;BME280;8335;42.646;23.380;2023-04-01T06:38:42;145469.06;;;15.77;50.86
8280;BME280;8335;42.646;23.380;2023-04-01T06:41:32;145470.31;;;15.78;50.52
8280;BME280;8335;42.646;23.380;2023-04-01T06:44:11;145364.19;;;15.34;52.29
8280;BME280;8335;42.646;23.380;2023-04-01T06:46:45;145339.25;;;15.24;52.71
8280;BME280;8335;42.646;23.380;2023-04-01T06:49:33;145294.31;;;15.06;53.81
8280;BME280;8335;42.646;23.380;2023-04-01T06:52:07;145185.81;;;14.62;55.82
8280;BME280;8335;42.646;23.380;2023-04-01T06:54:38;145127.19;;;14.38;57.35
8280;BME280;8335;42.646;23.380;2023-04-01T06:57:22;145053.63;;;14.08;58.23
8280;BME280;8335;42.646;23.380;2023-04-01T06:59:51;145001.28;;;13.86;59.95
8280;BME280;8335;42.646;23.380;2023-04-01T07:02:25;144906.53;;;13.47;62.07
8280;BME280;8335;42.646;23.380;2023-04-01T07:04:57;144915.28;;;13.51;62.53
8280;BME280;8335;42.646;23.380;2023-04-01T07:07:31;144931.50;;;13.58;63.21
8280;BME280;8335;42.646;23.380;2023-04-01T07:10:04;144941.44;;;13.62;63.77
8280;BME280;8335;42.646;23.380;2023-04-01T07:12:40;144972.59;;;13.74;63.58
8280;BME280;8335;42.646;23.380;2023-04-01T07:15:16;144990.03;;;13.82;63.42
8280;BME280;8335;42.646;23.380;2023-04-01T07:17:47;145009.97;;;13.90;63.15
8280;BME280;8335;42.646;23.380;2023-04-01T07:20:20;145009.97;;;13.90;62.79
8280;BME280;8335;42.646;23.380;2023-04-01T07:22:50;144997.50;;;13.85;63.95
8280;BME280;8335;42.646;23.380;2023-04-01T07:25:20;145008.75;;;13.89;63.36
8280;BME280;8335;42.646;23.380;2023-04-01T07:27:50;145002.53;;;13.87;63.69
8280;BME280;8335;42.646;23.380;2023-04-01T07:30:21;145000.00;;;13.86;63.76
8280;BME280;8335;42.646;23.380;2023-04-01T07:32:51;145082.28;;;14.19;63.63
8280;BME280;8335;42.646;23.380;2023-04-01T07:35:25;145076.06;;;14.17;64.02
8280;BME280;8335;42.646;23.380;2023-04-01T07:38:09;145103.47;;;14.28;64.11
8280;BME280;8335;42.646;23.380;2023-04-01T07:40:42;145123.44;;;14.36;63.94
8280;BME280;8335;42.646;23.380;2023-04-01T07:43:35;145150.91;;;14.47;63.14
8280;BME280;8335;42.646;23.380;2023-04-01T07:46:14;145154.63;;;14.49;63.43
8280;BME280;8335;42.646;23.380;2023-04-01T07:48:51;145152.16;;;14.48;63.17
8280;BME280;8335;42.646;23.380;2023-04-01T07:51:22;145163.38;;;14.52;63.08
8280;BME280;8335;42.646;23.380;2023-04-01T07:54:00;145154.63;;;14.49;63.53
8280;BME280;8335;42.646;23.380;2023-04-01T07:56:34;145180.84;;;14.59;63.37
8280;BME280;8335;42.646;23.380;2023-04-01T07:59:12;145195.81;;;14.66;62.91
8280;BME280;8335;42.646;23.380;2023-04-01T08:01:48;145230.75;;;14.80;62.42
8280;BME280;8335;42.646;23.380;2023-04-01T08:04:27;145174.59;;;14.57;62.06
8280;BME280;8335;42.646;23.380;2023-04-01T08:07:03;145124.69;;;14.37;63.05
8280;BME280;8335;42.646;23.380;2023-04-01T08:09:40;145160.91;;;14.51;62.99
8280;BME280;8335;42.646;23.380;2023-04-01T08:12:20;145167.13;;;14.54;64.03
8280;BME280;8335;42.646;23.380;2023-04-01T08:14:56;145153.41;;;14.48;63.99
8280;BME280;8335;42.646;23.380;2023-04-01T08:17:32;145089.78;;;14.22;63.42
8280;BME280;8335;42.646;23.380;2023-04-01T08:20:16;145189.56;;;14.63;62.82
8280;BME280;8335;42.646;23.380;2023-04-01T08:22:48;145223.22;;;14.77;62.59
8280;BME280;8335;42.646;23.380;2023-04-01T08:25:21;145229.50;;;14.79;62.53
8280;BME280;8335;42.646;23.380;2023-04-01T08:27:53;145276.88;;;14.99;62.41
8280;BME280;8335;42.646;23.380;2023-04-01T08:30:35;145266.91;;;14.95;61.35
8280;BME280;8335;42.646;23.380;2023-04-01T08:33:10;145295.56;;;15.06;61.75
8280;BME280;8335;42.646;23.380;2023-04-01T08:35:45;145289.34;;;15.04;61.79
8280;BME280;8335;42.646;23.380;2023-04-01T08:38:16;145298.09;;;15.07;60.59
8280;BME280;8335;42.646;23.380;2023-04-01T08:41:19;145305.56;;;15.10;60.62
8280;BME280;8335;42.646;23.380;2023-04-01T08:44:41;145325.53;;;15.19;59.94
8280;BME280;8335;42.646;23.380;2023-04-01T08:47:35;145335.53;;;15.23;59.76
8280;BME280;8335;42.646;23.380;2023-04-01T08:50:34;145370.47;;;15.37;59.06
8280;BME280;8335;42.646;23.380;2023-04-01T08:53:07;145410.38;;;15.53;58.37
8280;BME280;8335;42.646;23.380;2023-04-01T08:55:51;145465.34;;;15.76;58.00
8280;BME280;8335;42.646;23.380;2023-04-01T09:01:20;145526.53;;;16.01;56.74
8280;BME280;8335;42.646;23.380;2023-04-01T09:04:21;145580.22;;;16.22;56.12
8280;BME280;8335;42.646;23.380;2023-04-01T09:06:55;145628.88;;;16.42;55.53
8280;BME280;8335;42.646;23.380;2023-04-01T09:09:44;145641.38;;;16.47;55.03
8280;BME280;8335;42.646;23.380;2023-04-01T09:12:31;145647.63;;;16.50;55.57
8280;BME280;8335;42.646;23.380;2023-04-01T09:15:19;145671.38;;;16.60;53.69
8280;BME280;8335;42.646;23.380;2023-04-01T09:20:44;145666.38;;;16.58;51.21
8280;BME280;8335;42.646;23.380;2023-04-01T09:23:33;145677.59;;;16.62;51.28
8280;BME280;8335;42.646;23.380;2023-04-01T09:26:12;145681.34;;;16.64;51.74
8280;BME280;8335;42.646;23.380;2023-04-01T09:28:49;145688.84;;;16.67;52.18
8280;BME280;8335;42.646;23.380;2023-04-01T09:31:38;145630.13;;;16.43;52.20
8280;BME280;8335;42.646;23.380;2023-04-01T09:34:27;145701.41;;;16.72;51.00
8280;BME280;8335;42.646;23.380;2023-04-01T09:37:17;145650.16;;;16.51;49.91
8280;BME280;8335;42.646;23.380;2023-04-01T09:39:54;145630.13;;;16.43;50.26
8280;BME280;8335;42.646;23.380;2023-04-01T09:42:40;145590.19;;;16.27;50.11
8280;BME280;8335;42.646;23.380;2023-04-01T09:45:15;145544.00;;;16.08;49.95
8280;BME280;8335;42.646;23.380;2023-04-01T09:47:54;145534.00;;;16.04;49.53
8280;BME280;8335;42.646;23.380;2023-04-01T09:50:42;145527.78;;;16.01;50.17
8280;BME280;8335;42.646;23.380;2023-04-01T09:53:28;145532.75;;;16.03;50.42
8280;BME280;8335;42.646;23.380;2023-04-01T09:56:23;145521.50;;;15.99;50.39
8280;BME280;8335;42.646;23.380;2023-04-01T10:05:27;145547.75;;;16.09;50.80
8280;BME280;8335;42.646;23.380;2023-04-01T10:08:26;145526.53;;;16.01;51.59
8280;BME280;8335;42.646;23.380;2023-04-01T10:14:41;145597.69;;;16.30;51.49
8280;BME280;8335;42.646;23.380;2023-04-01T10:17:48;145573.94;;;16.20;51.47
8280;BME280;8335;42.646;23.380;2023-04-01T10:20:45;145538.97;;;16.06;52.19
8280;BME280;8335;42.646;23.380;2023-04-01T10:23:24;145516.53;;;15.96;53.04
8280;BME280;8335;42.646;23.380;2023-04-01T10:26:11;145527.78;;;16.01;53.30
8280;BME280;8335;42.646;23.380;2023-04-01T10:29:14;145515.28;;;15.96;53.62
8280;BME280;8335;42.646;23.380;2023-04-01T10:38:18;145600.19;;;16.31;52.81
8280;BME280;8335;42.646;23.380;2023-04-01T10:40:59;145592.66;;;16.28;52.97
8280;BME280;8335;42.646;23.380;2023-04-01T10:44:09;145557.72;;;16.13;53.53
8280;BME280;8335;42.646;23.380;2023-04-01T10:47:01;145494.06;;;15.87;54.44
8280;BME280;8335;42.646;23.380;2023-04-01T10:49:48;145462.84;;;15.75;55.70
8280;BME280;8335;42.646;23.380;2023-04-01T10:52:50;145446.63;;;15.68;56.26
8280;BME280;8335;42.646;23.380;2023-04-01T10:55:48;145471.56;;;15.78;55.71
8280;BME280;8335;42.646;23.380;2023-04-01T10:58:44;145507.75;;;15.93;55.00
8280;BME280;8335;42.646;23.380;2023-04-01T11:01:33;145515.28;;;15.96;54.67
8280;BME280;8335;42.646;23.380;2023-04-01T11:07:51;145547.75;;;16.09;54.80
8280;BME280;8335;42.646;23.380;2023-04-01T11:13:59;145567.72;;;16.17;54.09
8280;BME280;8335;42.646;23.380;2023-04-01T11:19:56;145582.72;;;16.23;54.73
8280;BME280;8335;42.646;23.380;2023-04-01T11:22:56;145581.47;;;16.23;54.06
8280;BME280;8335;42.646;23.380;2023-04-01T11:25:54;145567.72;;;16.17;53.00
8280;BME280;8335;42.646;23.380;2023-04-01T11:28:42;145561.50;;;16.15;49.91
8280;BME280;8335;42.646;23.380;2023-04-01T11:31:23;145585.19;;;16.24;45.57
8280;BME280;8335;42.646;23.380;2023-04-01T11:34:02;145600.19;;;16.31;44.84
8280;BME280;8335;42.646;23.380;2023-04-01T11:36:43;145618.91;;;16.38;45.35
8280;BME280;8335;42.646;23.380;2023-04-01T11:39:20;145627.63;;;16.42;45.33
8280;BME280;8335;42.646;23.380;2023-04-01T11:41:56;145615.19;;;16.37;45.93
8280;BME280;8335;42.646;23.380;2023-04-01T11:44:29;145611.41;;;16.35;45.80
8280;BME280;8335;42.646;23.380;2023-04-01T11:47:13;145592.66;;;16.28;50.35
8280;BME280;8335;42.646;23.380;2023-04-01T11:49:59;145505.28;;;15.92;58.63
8280;BME280;8335;42.646;23.380;2023-04-01T11:55:28;145314.28;;;15.14;67.24
8280;BME280;8335;42.646;23.380;2023-04-01T11:58:13;145197.06;;;14.66;72.16
8280;BME280;8335;42.646;23.380;2023-04-01T12:00:57;145054.88;;;14.08;79.22
8280;BME280;8335;42.646;23.380;2023-04-01T12:03:42;144924.00;;;13.55;82.29
8280;BME280;8335;42.646;23.380;2023-04-01T12:06:16;144810.59;;;13.08;84.30
8280;BME280;8335;42.646;23.380;2023-04-01T12:08:51;144758.28;;;12.87;88.35
8280;BME280;8335;42.646;23.380;2023-04-01T12:11:27;144699.72;;;12.63;90.31
8280;BME280;8335;42.646;23.380;2023-04-01T12:14:01;144666.09;;;12.49;94.69
8280;BME280;8335;42.646;23.380;2023-04-01T12:16:40;144627.53;;;12.33;98.42
8280;BME280;8335;42.646;23.380;2023-04-01T12:19:13;144595.16;;;12.20;100.00
8280;BME280;8335;42.646;23.380;2023-04-01T12:21:46;144574.00;;;12.11;100.00
8280;BME280;8335;42.646;23.380;2023-04-01T12:24:46;144605.13;;;12.24;100.00
8280;BME280;8335;42.646;23.380;2023-04-01T12:27:31;144607.59;;;12.25;100.00
8280;BME280;8335;42.646;23.380;2023-04-01T12:33:28;144644.94;;;12.40;98.14
8280;BME280;8335;42.646;23.380;2023-04-01T12:36:07;144674.84;;;12.53;96.30
8280;BME280;8335;42.646;23.380;2023-04-01T12:38:43;144671.13;;;12.51;95.99
8280;BME280;8335;42.646;23.380;2023-04-01T12:41:24;144643.72;;;12.40;97.63
8280;BME280;8335;42.646;23.380;2023-04-01T12:47:20;144610.09;;;12.26;100.00
8280;BME280;8335;42.646;23.380;2023-04-01T12:50:00;144566.56;;;12.08;100.00
8280;BME280;8335;42.646;23.380;2023-04-01T12:52:39;144549.13;;;12.01;100.00
8280;BME280;8335;42.646;23.380;2023-04-01T12:55:35;144501.81;;;11.82;100.00
8280;BME280;8335;42.646;23.380;2023-04-01T12:58:22;144463.22;;;11.66;100.00
8280;BME280;8335;42.646;23.380;2023-04-01T13:01:08;144423.38;;;11.50;100.00
8280;BME280;8335;42.646;23.380;2023-04-01T13:04:13;144394.78;;;11.38;100.00
8280;BME280;8335;42.646;23.380;2023-04-01T13:06:57;144361.19;;;11.24;100.00
8280;BME280;8335;42.646;23.380;2023-04-01T13:09:33;144369.88;;;11.28;100.00
8280;BME280;8335;42.646;23.380;2023-04-01T13:15:11;144347.50;;;11.19;100.00
8280;BME280;8335;42.646;23.380;2023-04-01T13:17:47;144345.03;;;11.18;100.00
8280;BME280;8335;42.646;23.380;2023-04-01T13:20:23;144368.63;;;11.27;100.00
8280;BME280;8335;42.646;23.380;2023-04-01T13:23:02;144415.91;;;11.47;100.00
8280;BME280;8335;42.646;23.380;2023-04-01T13:25:38;144489.31;;;11.77;98.17
8280;BME280;8335;42.646;23.380;2023-04-01T13:28:13;144552.84;;;12.03;94.20
8280;BME280;8335;42.646;23.380;2023-04-01T13:30:48;144633.78;;;12.36;89.57
8280;BME280;8335;42.646;23.380;2023-04-01T13:33:23;144681.06;;;12.55;89.33
8280;BME280;8335;42.646;23.380;2023-04-01T13:36:08;144753.28;;;12.85;85.54
8280;BME280;8335;42.646;23.380;2023-04-01T13:41:45;144895.31;;;13.43;83.60
8280;BME280;8335;42.646;23.380;2023-04-01T13:44:21;144960.13;;;13.69;79.52
8280;BME280;8335;42.646;23.380;2023-04-01T13:47:07;145008.75;;;13.89;80.40
8280;BME280;8335;42.646;23.380;2023-04-01T13:50:01;145063.59;;;14.12;77.74
8280;BME280;8335;42.646;23.380;2023-04-01T13:52:47;145084.75;;;14.20;75.18
8280;BME280;8335;42.646;23.380;2023-04-01T13:55:26;145153.41;;;14.48;76.25
8280;BME280;8335;42.646;23.380;2023-04-01T13:58:11;145212.03;;;14.72;80.66
8280;BME280;8335;42.646;23.380;2023-04-01T14:00:50;145271.88;;;14.97;77.09
8280;BME280;8335;42.646;23.380;2023-04-01T14:03:52;145346.72;;;15.27;75.02
8280;BME280;8335;42.646;23.380;2023-04-01T14:06:31;145311.78;;;15.13;82.10
8280;BME280;8335;42.646;23.380;2023-04-01T14:12:14;144933.97;;;13.59;91.60
8280;BME280;8335;42.646;23.380;2023-04-01T14:17:53;144880.41;;;13.37;95.12
8280;BME280;8335;42.646;23.380;2023-04-01T14:20:30;144885.38;;;13.39;96.26
8280;BME280;8335;42.646;23.380;2023-04-01T14:23:13;144864.22;;;13.30;95.94
8280;BME280;8335;42.646;23.380;2023-04-01T14:28:38;144789.38;;;13.00;97.64
8280;BME280;8335;42.646;23.380;2023-04-01T14:31:36;144730.88;;;12.76;98.91
8280;BME280;8335;42.646;23.380;2023-04-01T14:34:18;144699.72;;;12.63;97.93
8280;BME280;8335;42.646;23.380;2023-04-01T14:37:05;144689.78;;;12.59;98.48
8280;BME280;8335;42.646;23.380;2023-04-01T14:39:56;144688.56;;;12.58;98.29
8280;BME280;8335;42.646;23.380;2023-04-01T14:42:45;144664.88;;;12.49;98.98
8280;BME280;8335;42.646;23.380;2023-04-01T14:45:43;144671.13;;;12.51;99.79
8280;BME280;8335;42.646;23.380;2023-04-01T14:48:21;144719.66;;;12.71;99.46
8280;BME280;8335;42.646;23.380;2023-04-01T14:50:52;144757.03;;;12.86;97.41